sensor_id;sensor_type;location;lat;lon;timestamp;pressure;altitude;pressure_sealevel;temperature;humidity
61573;BME280;47465;43.094;12.434;2023-02-23T00:00:37;98752.97;;;6.55;100.00
61573;BME280;47465;43.094;12.434;2023-02-23T00:03:03;98761.72;;;6.60;100.00
61573;BME280;47465;43.094;12.434;2023-02-23T00:05:31;98767.88;;;6.59;100.00
61573;BME280;47465;43.094;12.434;2023-02-23T00:08:00;98745.19;;;6.41;100.00
61573;BME280;47465;43.094;12.434;2023-02-23T00:10:28;98773.25;;;6.53;100.00
61573;BME280;47465;43.094;12.434;2023-02-23T00:12:55;98746.03;;;6.46;100.00
61573;BME280;47465;43.094;12.434;2023-02-23T00:15:22;98768.66;;;6.69;100.00
61573;BME280;47465;43.094;12.434;2023-02-23T00:17:52;98743.22;;;6.58;100.00
61573;BME280;47465;43.094;12.434;2023-02-23T00:20:19;98744.03;;;6.65;100.00
61573;BME280;47465;43.094;12.434;2023-02-23T00:22:52;98742.16;;;6.73;100.00
61573;BME280;47465;43.094;12.434;2023-02-23T00:25:18;98764.97;;;6.84;100.00
61573;BME280;47465;43.094;12.434;2023-02-23T00:27:45;98764.03;;;6.88;100.00
61573;BME280;47465;43.094;12.434;2023-02-23T00:30:12;98747.28;;;6.87;100.00
61573;BME280;47465;43.094;12.434;2023-02-23T00:32:38;98760.34;;;6.99;100.00
61573;BME280;47465;43.094;12.434;2023-02-23T00:35:06;98756.84;;;6.97;100.00
61573;BME280;47465;43.094;12.434;2023-02-23T00:38:06;98759.41;;;7.05;100.00
61573;BME280;47465;43.094;12.434;2023-02-23T00:40:32;98781.31;;;7.15;100.00
61573;BME280;47465;43.094;12.434;2023-02-23T00:42:58;98755.94;;;7.00;100.00
61573;BME280;47465;43.094;12.434;2023-02-23T00:45:24;98757.63;;;7.07;100.00
61573;BME280;47465;43.094;12.434;2023-02-23T00:47:51;98773.38;;;7.13;100.00
61573;BME280;47465;43.094;12.434;2023-02-23T00:50:20;98750.53;;;7.09;100.00
61573;BME280;47465;43.094;12.434;2023-02-23T00:52:46;98764.41;;;7.25;100.00
61573;BME280;47465;43.094;12.434;2023-02-23T00:55:14;98750.44;;;7.15;100.00
61573;BME280;47465;43.094;12.434;2023-02-23T00:57:40;98765.34;;;7.21;100.00
61573;BME280;47465;43.094;12.434;2023-02-23T01:00:10;98759.19;;;7.20;100.00
61573;BME280;47465;43.094;12.434;2023-02-23T01:02:45;98757.44;;;7.19;100.00
61573;BME280;47465;43.094;12.434;2023-02-23T01:05:11;98753.06;;;7.15;100.00
61573;BME280;47465;43.094;12.434;2023-02-23T01:07:38;98740.78;;;7.14;100.00
61573;BME280;47465;43.094;12.434;2023-02-23T01:10:06;98741.63;;;7.16;100.00
61573;BME280;47465;43.094;12.434;2023-02-23T01:12:46;98724.91;;;7.13;100.00
61573;BME280;47465;43.094;12.434;2023-02-23T01:15:12;98722.34;;;7.07;100.00
61573;BME280;47465;43.094;12.434;2023-02-23T01:17:38;98731.00;;;7.19;100.00
61573;BME280;47465;43.094;12.434;2023-02-23T01:20:05;98728.34;;;7.21;100.00
61573;BME280;47465;43.094;12.434;2023-02-23T01:33:30;98706.38;;;7.14;100.00
61573;BME280;47465;43.094;12.434;2023-02-23T01:35:57;98716.81;;;7.25;100.00
61573;BME280;47465;43.094;12.434;2023-02-23T01:38:23;98721.19;;;7.28;100.00
61573;BME280;47465;43.094;12.434;2023-02-23T01:40:49;98705.38;;;7.25;100.00
61573;BME280;47465;43.094;12.434;2023-02-23T01:43:20;98715.88;;;7.28;100.00
61573;BME280;47465;43.094;12.434;2023-02-23T01:45:51;98707.19;;;7.19;100.00
61573;BME280;47465;43.094;12.434;2023-02-23T01:48:20;98711.53;;;7.25;100.00
61573;BME280;47465;43.094;12.434;2023-02-23T01:50:52;98703.69;;;7.19;100.00
61573;BME280;47465;43.094;12.434;2023-02-23T01:53:20;98721.97;;;7.34;100.00
61573;BME280;47465;43.094;12.434;2023-02-23T01:55:47;98725.31;;;7.46;100.00
61573;BME280;47465;43.094;12.434;2023-02-23T01:58:17;98689.44;;;7.26;100.00
61573;BME280;47465;43.094;12.434;2023-02-23T02:00:48;98714.84;;;7.39;100.00
61573;BME280;47465;43.094;12.434;2023-02-23T02:03:21;98694.69;;;7.31;100.00
61573;BME280;47465;43.094;12.434;2023-02-23T02:05:53;98679.72;;;7.28;100.00
61573;BME280;47465;43.094;12.434;2023-02-23T02:08:19;98671.69;;;7.36;100.00
61573;BME280;47465;43.094;12.434;2023-02-23T02:10:51;98684.75;;;7.45;100.00
61573;BME280;47465;43.094;12.434;2023-02-23T02:13:24;98675.38;;;7.24;100.00
61573;BME280;47465;43.094;12.434;2023-02-23T02:19:22;98722.97;;;7.24;100.00
61573;BME280;47465;43.094;12.434;2023-02-23T02:22:24;98739.69;;;7.29;100.00
61573;BME280;47465;43.094;12.434;2023-02-23T02:25:17;98720.44;;;7.18;100.00
61573;BME280;47465;43.094;12.434;2023-02-23T02:28:06;98714.25;;;7.19;100.00
61573;BME280;47465;43.094;12.434;2023-02-23T02:31:04;98698.38;;;7.19;100.00
61573;BME280;47465;43.094;12.434;2023-02-23T02:34:06;98720.19;;;7.35;100.00
61573;BME280;47465;43.094;12.434;2023-02-23T02:37:04;98702.50;;;7.38;100.00
61573;BME280;47465;43.094;12.434;2023-02-23T02:39:41;98705.09;;;7.41;100.00
61573;BME280;47465;43.094;12.434;2023-02-23T02:42:19;98684.84;;;7.40;100.00
61573;BME280;47465;43.094;12.434;2023-02-23T02:44:51;98711.81;;;7.64;100.00
61573;BME280;47465;43.094;12.434;2023-02-23T02:47:22;98697.88;;;7.53;100.00
61573;BME280;47465;43.094;12.434;2023-02-23T02:49:53;98682.91;;;7.50;100.00
61573;BME280;47465;43.094;12.434;2023-02-23T02:52:29;98684.59;;;7.56;100.00
61573;BME280;47465;43.094;12.434;2023-02-23T02:55:05;98686.38;;;7.55;100.00
61573;BME280;47465;43.094;12.434;2023-02-23T02:57:37;98685.44;;;7.58;100.00
61573;BME280;47465;43.094;12.434;2023-02-23T03:00:06;98677.59;;;7.50;100.00
61573;BME280;47465;43.094;12.434;2023-02-23T03:03:30;98708.13;;;7.74;100.00
61573;BME280;47465;43.094;12.434;2023-02-23T03:06:28;98695.00;;;7.65;100.00
61573;BME280;47465;43.094;12.434;2023-02-23T03:09:42;98709.16;;;7.66;100.00
61573;BME280;47465;43.094;12.434;2023-02-23T03:12:56;98706.53;;;7.63;100.00
61573;BME280;47465;43.094;12.434;2023-02-23T03:16:01;98704.03;;;7.53;100.00
61573;BME280;47465;43.094;12.434;2023-02-23T03:19:14;98690.19;;;7.37;100.00
61573;BME280;47465;43.094;12.434;2023-02-23T03:22:21;98701.63;;;7.39;100.00
61573;BME280;47465;43.094;12.434;2023-02-23T03:25:27;98704.28;;;7.38;100.00
61573;BME280;47465;43.094;12.434;2023-02-23T03:28:31;98715.63;;;7.46;100.00
61573;BME280;47465;43.094;12.434;2023-02-23T03:31:45;98707.69;;;7.46;100.00
61573;BME280;47465;43.094;12.434;2023-02-23T03:34:50;98704.22;;;7.41;100.00
61573;BME280;47465;43.094;12.434;2023-02-23T03:37:55;98690.22;;;7.33;100.00
61573;BME280;47465;43.094;12.434;2023-02-23T03:40:58;98676.31;;;7.22;100.00
61573;BME280;47465;43.094;12.434;2023-02-23T03:44:02;98706.94;;;7.36;100.00
61573;BME280;47465;43.094;12.434;2023-02-23T03:47:08;98709.59;;;7.35;100.00
61573;BME280;47465;43.094;12.434;2023-02-23T03:50:18;98690.47;;;7.17;100.00
61573;BME280;47465;43.094;12.434;2023-02-23T03:53:25;98702.72;;;7.25;100.00
61573;BME280;47465;43.094;12.434;2023-02-23T03:56:29;98700.97;;;7.24;100.00
61573;BME280;47465;43.094;12.434;2023-02-23T03:59:35;98708.09;;;7.20;100.00
61573;BME280;47465;43.094;12.434;2023-02-23T04:02:39;98712.38;;;7.26;100.00
61573;BME280;47465;43.094;12.434;2023-02-23T04:05:43;98706.22;;;7.27;100.00
61573;BME280;47465;43.094;12.434;2023-02-23T04:08:43;98705.31;;;7.26;100.00
61573;BME280;47465;43.094;12.434;2023-02-23T04:11:47;98701.88;;;7.23;100.00
61573;BME280;47465;43.094;12.434;2023-02-23T04:14:53;98713.31;;;7.25;100.00
61573;BME280;47465;43.094;12.434;2023-02-23T04:17:57;98720.25;;;7.32;100.00
61573;BME280;47465;43.094;12.434;2023-02-23T04:20:24;98704.59;;;7.16;100.00
61573;BME280;47465;43.094;12.434;2023-02-23T04:22:50;98720.31;;;7.29;100.00
61573;BME280;47465;43.094;12.434;2023-02-23T04:25:17;98709.72;;;7.27;100.00
61573;BME280;47465;43.094;12.434;2023-02-23T04:27:43;98720.19;;;7.35;100.00
61573;BME280;47465;43.094;12.434;2023-02-23T04:30:10;98708.00;;;7.25;100.00
61573;BME280;47465;43.094;12.434;2023-02-23T04:32:36;98701.09;;;7.16;100.00
61573;BME280;47465;43.094;12.434;2023-02-23T04:35:04;98708.94;;;7.20;100.00
61573;BME280;47465;43.094;12.434;2023-02-23T04:37:31;98705.44;;;7.18;100.00
61573;BME280;47465;43.094;12.434;2023-02-23T04:39:59;98696.69;;;7.15;100.00
61573;BME280;47465;43.094;12.434;2023-02-23T04:42:25;98710.66;;;7.23;100.00
61573;BME280;47465;43.094;12.434;2023-02-23T04:44:51;98701.09;;;7.14;100.00
61573;BME280;47465;43.094;12.434;2023-02-23T04:47:17;98708.09;;;7.17;100.00
61573;BME280;47465;43.094;12.434;2023-02-23T04:49:43;98708.09;;;7.17;100.00
61573;BME280;47465;43.094;12.434;2023-02-23T04:52:10;98708.09;;;7.17;100.00
61573;BME280;47465;43.094;12.434;2023-02-23T04:54:37;98694.09;;;7.12;100.00
61573;BME280;47465;43.094;12.434;2023-02-23T04:57:04;98696.59;;;7.19;100.00
61573;BME280;47465;43.094;12.434;2023-02-23T04:59:30;98717.66;;;7.27;100.00
61573;BME280;47465;43.094;12.434;2023-02-23T05:01:56;98700.22;;;7.14;100.00
61573;BME280;47465;43.094;12.434;2023-02-23T05:04:21;98702.88;;;7.14;100.00
61573;BME280;47465;43.094;12.434;2023-02-23T05:06:47;98693.97;;;7.19;100.00
61573;BME280;47465;43.094;12.434;2023-02-23T05:09:15;98690.50;;;7.16;100.00
61573;BME280;47465;43.094;12.434;2023-02-23T05:11:41;98701.13;;;7.13;100.00
61573;BME280;47465;43.094;12.434;2023-02-23T05:14:07;98687.88;;;7.14;100.00
61573;BME280;47465;43.094;12.434;2023-02-23T05:16:34;98699.16;;;7.27;100.00
61573;BME280;47465;43.094;12.434;2023-02-23T05:19:00;98693.97;;;7.19;100.00
61573;BME280;47465;43.094;12.434;2023-02-23T05:21:26;98694.91;;;7.15;100.00
61573;BME280;47465;43.094;12.434;2023-02-23T05:23:52;98689.66;;;7.12;100.00
61573;BME280;47465;43.094;12.434;2023-02-23T05:26:19;98696.75;;;7.12;100.00
61573;BME280;47465;43.094;12.434;2023-02-23T05:28:45;98691.41;;;7.13;100.00
61573;BME280;47465;43.094;12.434;2023-02-23T05:31:11;98695.66;;;7.27;100.00
61573;BME280;47465;43.094;12.434;2023-02-23T05:33:37;98695.66;;;7.25;100.00
61573;BME280;47465;43.094;12.434;2023-02-23T05:36:08;98700.16;;;7.18;100.00
61573;BME280;47465;43.094;12.434;2023-02-23T05:38:35;98714.25;;;7.20;100.00
61573;BME280;47465;43.094;12.434;2023-02-23T05:41:04;98691.38;;;7.16;100.00
61573;BME280;47465;43.094;12.434;2023-02-23T05:43:31;98716.75;;;7.30;100.00
61573;BME280;47465;43.094;12.434;2023-02-23T05:45:57;98703.53;;;7.28;100.00
61573;BME280;47465;43.094;12.434;2023-02-23T05:48:23;98687.72;;;7.25;100.00
61573;BME280;47465;43.094;12.434;2023-02-23T05:50:49;98682.44;;;7.24;100.00
61573;BME280;47465;43.094;12.434;2023-02-23T05:53:15;98681.50;;;7.28;100.00
61573;BME280;47465;43.094;12.434;2023-02-23T05:55:41;98666.56;;;7.24;100.00
61573;BME280;47465;43.094;12.434;2023-02-23T05:58:07;98693.72;;;7.36;100.00
61573;BME280;47465;43.094;12.434;2023-02-23T06:00:35;98664.00;;;7.20;100.00
61573;BME280;47465;43.094;12.434;2023-02-23T06:03:01;98678.00;;;7.26;100.00
61573;BME280;47465;43.094;12.434;2023-02-23T06:05:27;98664.00;;;7.19;100.00
61573;BME280;47465;43.094;12.434;2023-02-23T06:07:54;98692.88;;;7.34;100.00
61573;BME280;47465;43.094;12.434;2023-02-23T06:10:21;98662.38;;;7.10;100.00
61573;BME280;47465;43.094;12.434;2023-02-23T06:12:47;98669.34;;;7.16;100.00
61573;BME280;47465;43.094;12.434;2023-02-23T06:15:13;98672.03;;;7.13;100.00
61573;BME280;47465;43.094;12.434;2023-02-23T06:17:41;98677.31;;;7.13;100.00
61573;BME280;47465;43.094;12.434;2023-02-23T06:20:08;98695.75;;;7.19;100.00
61573;BME280;47465;43.094;12.434;2023-02-23T06:22:34;98659.66;;;7.15;100.00
61573;BME280;47465;43.094;12.434;2023-02-23T06:25:00;98685.16;;;7.20;100.00
61573;BME280;47465;43.094;12.434;2023-02-23T06:27:29;98694.97;;;7.11;100.00
61573;BME280;47465;43.094;12.434;2023-02-23T06:29:56;98694.47;;;6.84;100.00
61573;BME280;47465;43.094;12.434;2023-02-23T06:32:22;98717.31;;;6.90;100.00
61573;BME280;47465;43.094;12.434;2023-02-23T06:34:50;98683.25;;;6.67;100.00
61573;BME280;47465;43.094;12.434;2023-02-23T06:37:15;98706.75;;;6.90;100.00
61573;BME280;47465;43.094;12.434;2023-02-23T06:39:41;98710.25;;;6.89;100.00
61573;BME280;47465;43.094;12.434;2023-02-23T06:42:07;98690.16;;;6.77;100.00
61573;BME280;47465;43.094;12.434;2023-02-23T06:44:33;98703.25;;;6.88;100.00
61573;BME280;47465;43.094;12.434;2023-02-23T06:47:00;98696.19;;;6.88;100.00
61573;BME280;47465;43.094;12.434;2023-02-23T06:49:28;98713.56;;;7.05;100.00
61573;BME280;47465;43.094;12.434;2023-02-23T06:51:56;98702.16;;;7.03;100.00
61573;BME280;47465;43.094;12.434;2023-02-23T06:54:22;98714.34;;;7.13;100.00
61573;BME280;47465;43.094;12.434;2023-02-23T06:56:49;98695.03;;;7.08;100.00
61573;BME280;47465;43.094;12.434;2023-02-23T06:59:15;98726.41;;;7.32;100.00
61573;BME280;47465;43.094;12.434;2023-02-23T07:01:41;98714.00;;;7.36;100.00
61573;BME280;47465;43.094;12.434;2023-02-23T07:04:09;98730.66;;;7.44;100.00
61573;BME280;47465;43.094;12.434;2023-02-23T07:06:35;98709.50;;;7.41;100.00
61573;BME280;47465;43.094;12.434;2023-02-23T07:09:04;98707.66;;;7.48;100.00
61573;BME280;47465;43.094;12.434;2023-02-23T07:11:30;98697.03;;;7.49;100.00
61573;BME280;47465;43.094;12.434;2023-02-23T07:13:56;98703.97;;;7.56;100.00
61573;BME280;47465;43.094;12.434;2023-02-23T07:16:22;98707.44;;;7.61;100.00
61573;BME280;47465;43.094;12.434;2023-02-23T07:18:48;98703.88;;;7.64;100.00
61573;BME280;47465;43.094;12.434;2023-02-23T07:21:14;98718.66;;;7.77;100.00
61573;BME280;47465;43.094;12.434;2023-02-23T07:23:40;98709.88;;;7.74;100.00
61573;BME280;47465;43.094;12.434;2023-02-23T07:26:07;98717.78;;;7.77;100.00
61573;BME280;47465;43.094;12.434;2023-02-23T07:28:34;98736.31;;;7.75;100.00
61573;BME280;47465;43.094;12.434;2023-02-23T07:31:00;98711.84;;;7.61;100.00
61573;BME280;47465;43.094;12.434;2023-02-23T07:33:26;98711.75;;;7.67;100.00
61573;BME280;47465;43.094;12.434;2023-02-23T07:35:52;98742.97;;;7.99;100.00
61573;BME280;47465;43.094;12.434;2023-02-23T07:38:18;98727.00;;;8.04;100.00
61573;BME280;47465;43.094;12.434;2023-02-23T07:40:44;98710.06;;;8.13;100.00
61573;BME280;47465;43.094;12.434;2023-02-23T07:43:11;98709.88;;;8.25;100.00
61573;BME280;47465;43.094;12.434;2023-02-23T07:45:37;98731.31;;;8.59;100.00
61573;BME280;47465;43.094;12.434;2023-02-23T07:48:03;98743.03;;;8.91;100.00
61573;BME280;47465;43.094;12.434;2023-02-23T07:50:29;98717.88;;;9.11;100.00
61573;BME280;47465;43.094;12.434;2023-02-23T07:52:55;98718.09;;;9.40;100.00
61573;BME280;47465;43.094;12.434;2023-02-23T07:55:21;98727.94;;;9.73;100.00
61573;BME280;47465;43.094;12.434;2023-02-23T07:57:47;98728.03;;;10.04;100.00
61573;BME280;47465;43.094;12.434;2023-02-23T08:00:16;98727.03;;;10.10;100.00
61573;BME280;47465;43.094;12.434;2023-02-23T08:02:42;98721.44;;;10.20;100.00
61573;BME280;47465;43.094;12.434;2023-02-23T08:05:09;98719.63;;;10.22;100.00
61573;BME280;47465;43.094;12.434;2023-02-23T08:07:35;98727.38;;;10.32;100.00
61573;BME280;47465;43.094;12.434;2023-02-23T08:10:01;98738.81;;;10.35;100.00
61573;BME280;47465;43.094;12.434;2023-02-23T08:12:27;98723.84;;;10.31;100.00
61573;BME280;47465;43.094;12.434;2023-02-23T08:14:54;98719.38;;;10.33;100.00
61573;BME280;47465;43.094;12.434;2023-02-23T08:17:21;98726.13;;;10.45;100.00
61573;BME280;47465;43.094;12.434;2023-02-23T08:19:47;98719.75;;;10.52;100.00
61573;BME280;47465;43.094;12.434;2023-02-23T08:22:17;98715.94;;;10.61;100.00
61573;BME280;47465;43.094;12.434;2023-02-23T08:24:43;98746.50;;;10.77;100.00
61573;BME280;47465;43.094;12.434;2023-02-23T08:27:09;98738.81;;;10.66;100.00
61573;BME280;47465;43.094;12.434;2023-02-23T08:29:39;98728.84;;;10.43;100.00
61573;BME280;47465;43.094;12.434;2023-02-23T08:32:05;98727.19;;;10.39;100.00
61573;BME280;47465;43.094;12.434;2023-02-23T08:34:36;98756.16;;;10.48;100.00
61573;BME280;47465;43.094;12.434;2023-02-23T08:37:02;98730.22;;;10.24;100.00
61573;BME280;47465;43.094;12.434;2023-02-23T08:39:28;98756.41;;;10.39;100.00
61573;BME280;47465;43.094;12.434;2023-02-23T08:41:54;98726.50;;;10.31;100.00
61573;BME280;47465;43.094;12.434;2023-02-23T08:44:20;98735.84;;;10.46;100.00
61573;BME280;47465;43.094;12.434;2023-02-23T08:46:46;98732.09;;;10.53;100.00
61573;BME280;47465;43.094;12.434;2023-02-23T08:49:12;98738.28;;;10.54;100.00
61573;BME280;47465;43.094;12.434;2023-02-23T08:51:39;98737.41;;;10.53;100.00
61573;BME280;47465;43.094;12.434;2023-02-23T08:54:06;98750.03;;;10.45;100.00
61573;BME280;47465;43.094;12.434;2023-02-23T08:56:37;98765.13;;;10.44;100.00
61573;BME280;47465;43.094;12.434;2023-02-23T08:59:03;98742.59;;;10.23;100.00
61573;BME280;47465;43.094;12.434;2023-02-23T09:01:29;98745.22;;;10.25;100.00
61573;BME280;47465;43.094;12.434;2023-02-23T09:03:55;98762.84;;;10.31;100.00
61573;BME280;47465;43.094;12.434;2023-02-23T09:06:23;98741.16;;;10.12;100.00
61573;BME280;47465;43.094;12.434;2023-02-23T09:08:52;98748.28;;;10.10;100.00
61573;BME280;47465;43.094;12.434;2023-02-23T09:11:19;98743.06;;;10.06;100.00
61573;BME280;47465;43.094;12.434;2023-02-23T09:13:44;98736.91;;;10.04;100.00
61573;BME280;47465;43.094;12.434;2023-02-23T09:16:10;98743.22;;;10.00;100.00
61573;BME280;47465;43.094;12.434;2023-02-23T09:18:37;98740.06;;;10.19;100.00
61573;BME280;47465;43.094;12.434;2023-02-23T09:21:04;98736.28;;;10.31;100.00
61573;BME280;47465;43.094;12.434;2023-02-23T09:23:32;98737.41;;;10.53;100.00
61573;BME280;47465;43.094;12.434;2023-02-23T09:26:03;98757.50;;;10.96;100.00
61573;BME280;47465;43.094;12.434;2023-02-23T09:28:29;98750.03;;;11.09;100.00
61573;BME280;47465;43.094;12.434;2023-02-23T09:30:55;98734.56;;;11.22;100.00
61573;BME280;47465;43.094;12.434;2023-02-23T09:33:22;98765.34;;;11.60;100.00
61573;BME280;47465;43.094;12.434;2023-02-23T09:35:48;98742.66;;;11.75;100.00
61573;BME280;47465;43.094;12.434;2023-02-23T09:38:13;98748.78;;;11.79;100.00
61573;BME280;47465;43.094;12.434;2023-02-23T09:40:45;98761.13;;;12.09;100.00
61573;BME280;47465;43.094;12.434;2023-02-23T09:43:15;98747.59;;;12.16;100.00
61573;BME280;47465;43.094;12.434;2023-02-23T09:45:49;98751.91;;;12.20;100.00
61573;BME280;47465;43.094;12.434;2023-02-23T09:48:17;98770.06;;;12.33;96.95
61573;BME280;47465;43.094;12.434;2023-02-23T09:50:47;98762.72;;;12.40;96.49
61573;BME280;47465;43.094;12.434;2023-02-23T09:53:23;98737.81;;;12.41;97.15
61573;BME280;47465;43.094;12.434;2023-02-23T09:55:52;98756.66;;;12.62;96.86
61573;BME280;47465;43.094;12.434;2023-02-23T09:58:23;98748.22;;;12.74;95.86
61573;BME280;47465;43.094;12.434;2023-02-23T10:01:10;98749.16;;;12.97;94.51
61573;BME280;47465;43.094;12.434;2023-02-23T10:03:49;98739.03;;;13.06;91.76
61573;BME280;47465;43.094;12.434;2023-02-23T10:06:17;98746.56;;;12.70;93.16
61573;BME280;47465;43.094;12.434;2023-02-23T10:08:54;98738.31;;;12.78;91.62
61573;BME280;47465;43.094;12.434;2023-02-23T10:11:28;98727.34;;;12.85;94.02
61573;BME280;47465;43.094;12.434;2023-02-23T10:14:06;98720.38;;;13.05;92.09
61573;BME280;47465;43.094;12.434;2023-02-23T10:16:44;98720.50;;;13.02;90.35
61573;BME280;47465;43.094;12.434;2023-02-23T10:19:22;98730.38;;;13.00;90.75
61573;BME280;47465;43.094;12.434;2023-02-23T10:21:53;98741.63;;;12.84;92.61
61573;BME280;47465;43.094;12.434;2023-02-23T10:24:24;98730.09;;;12.84;92.43
61573;BME280;47465;43.094;12.434;2023-02-23T10:26:53;98735.47;;;12.82;93.14
61573;BME280;47465;43.094;12.434;2023-02-23T10:29:26;98742.91;;;12.98;91.80
61573;BME280;47465;43.094;12.434;2023-02-23T10:31:56;98724.91;;;13.03;88.07
61573;BME280;47465;43.094;12.434;2023-02-23T10:34:24;98717.75;;;13.28;88.51
61573;BME280;47465;43.094;12.434;2023-02-23T10:36:57;98728.53;;;13.49;89.28
61573;BME280;47465;43.094;12.434;2023-02-23T10:39:23;98722.06;;;13.54;87.98
61573;BME280;47465;43.094;12.434;2023-02-23T10:41:51;98725.25;;;13.64;88.70
61573;BME280;47465;43.094;12.434;2023-02-23T10:44:19;98720.59;;;13.22;88.19
61573;BME280;47465;43.094;12.434;2023-02-23T10:46:51;98706.00;;;12.85;90.54
61573;BME280;47465;43.094;12.434;2023-02-23T10:49:21;98728.28;;;13.08;91.53
61573;BME280;47465;43.094;12.434;2023-02-23T10:51:48;98726.66;;;13.27;89.37
61573;BME280;47465;43.094;12.434;2023-02-23T10:54:35;98729.44;;;13.48;87.85
61573;BME280;47465;43.094;12.434;2023-02-23T10:57:03;98699.00;;;13.52;84.44
61573;BME280;47465;43.094;12.434;2023-02-23T10:59:30;98699.81;;;13.54;86.44
61573;BME280;47465;43.094;12.434;2023-02-23T11:01:58;98702.25;;;13.38;86.75
61573;BME280;47465;43.094;12.434;2023-02-23T11:04:25;98713.22;;;13.52;87.35
61573;BME280;47465;43.094;12.434;2023-02-23T11:07:05;98717.59;;;13.77;86.21
61573;BME280;47465;43.094;12.434;2023-02-23T11:09:32;98703.16;;;13.81;86.49
61573;BME280;47465;43.094;12.434;2023-02-23T11:12:00;98696.25;;;13.97;85.08
61573;BME280;47465;43.094;12.434;2023-02-23T11:14:29;98708.34;;;14.27;85.25
61573;BME280;47465;43.094;12.434;2023-02-23T11:16:56;98704.91;;;14.45;84.76
61573;BME280;47465;43.094;12.434;2023-02-23T11:19:30;98697.78;;;14.44;82.11
61573;BME280;47465;43.094;12.434;2023-02-23T11:21:57;98705.72;;;14.68;81.39
61573;BME280;47465;43.094;12.434;2023-02-23T11:24:26;98676.16;;;14.71;80.57
61573;BME280;47465;43.094;12.434;2023-02-23T11:26:56;98695.41;;;14.98;78.05
61573;BME280;47465;43.094;12.434;2023-02-23T11:29:29;98675.28;;;14.89;79.58
61573;BME280;47465;43.094;12.434;2023-02-23T11:32:02;98671.41;;;14.96;77.59
61573;BME280;47465;43.094;12.434;2023-02-23T11:34:35;98677.25;;;14.86;79.57
61573;BME280;47465;43.094;12.434;2023-02-23T11:37:07;98665.66;;;14.66;77.39
61573;BME280;47465;43.094;12.434;2023-02-23T11:39:51;98668.53;;;14.62;77.09
61573;BME280;47465;43.094;12.434;2023-02-23T11:42:19;98680.16;;;14.40;77.01
61573;BME280;47465;43.094;12.434;2023-02-23T11:44:50;98666.94;;;14.16;77.40
61573;BME280;47465;43.094;12.434;2023-02-23T11:47:19;98664.81;;;14.03;78.13
61573;BME280;47465;43.094;12.434;2023-02-23T11:49:48;98666.09;;;13.94;78.34
61573;BME280;47465;43.094;12.434;2023-02-23T11:52:15;98687.09;;;14.03;76.32
61573;BME280;47465;43.094;12.434;2023-02-23T11:54:49;98657.50;;;14.08;76.01
61573;BME280;47465;43.094;12.434;2023-02-23T11:57:20;98662.03;;;14.26;77.27
61573;BME280;47465;43.094;12.434;2023-02-23T11:59:47;98684.09;;;14.52;76.14
61573;BME280;47465;43.094;12.434;2023-02-23T12:02:20;98681.25;;;14.56;76.08
61573;BME280;47465;43.094;12.434;2023-02-23T12:04:52;98651.81;;;14.36;74.81
61573;BME280;47465;43.094;12.434;2023-02-23T12:07:33;98669.13;;;14.68;76.57
61573;BME280;47465;43.094;12.434;2023-02-23T12:10:12;98652.72;;;14.76;75.96
61573;BME280;47465;43.094;12.434;2023-02-23T12:12:49;98665.25;;;15.13;75.15
61573;BME280;47465;43.094;12.434;2023-02-23T12:15:23;98661.25;;;14.84;73.61
61573;BME280;47465;43.094;12.434;2023-02-23T12:17:54;98665.19;;;14.56;73.74
61573;BME280;47465;43.094;12.434;2023-02-23T12:20:25;98635.44;;;14.23;76.81
61573;BME280;47465;43.094;12.434;2023-02-23T12:22:56;98631.47;;;14.11;75.45
61573;BME280;47465;43.094;12.434;2023-02-23T12:25:26;98631.19;;;13.76;77.77
61573;BME280;47465;43.094;12.434;2023-02-23T12:28:01;98627.81;;;13.93;77.47
61573;BME280;47465;43.094;12.434;2023-02-23T12:30:38;98642.16;;;14.11;75.87
61573;BME280;47465;43.094;12.434;2023-02-23T12:33:11;98633.94;;;13.95;76.04
61573;BME280;47465;43.094;12.434;2023-02-23T12:35:45;98629.25;;;14.01;76.98
61573;BME280;47465;43.094;12.434;2023-02-23T12:38:20;98643.25;;;14.28;78.59
61573;BME280;47465;43.094;12.434;2023-02-23T12:40:58;98640.50;;;14.29;76.56
61573;BME280;47465;43.094;12.434;2023-02-23T12:43:34;98659.75;;;14.17;77.79
61573;BME280;47465;43.094;12.434;2023-02-23T12:46:09;98625.13;;;13.93;77.55
61573;BME280;47465;43.094;12.434;2023-02-23T12:48:46;98628.19;;;14.05;77.48
61573;BME280;47465;43.094;12.434;2023-02-23T12:51:21;98620.88;;;14.10;77.55
61573;BME280;47465;43.094;12.434;2023-02-23T12:53:49;98629.22;;;14.23;77.65
61573;BME280;47465;43.094;12.434;2023-02-23T12:56:39;98622.53;;;14.12;77.17
61573;BME280;47465;43.094;12.434;2023-02-23T12:59:38;98645.91;;;14.28;76.61
61573;BME280;47465;43.094;12.434;2023-02-23T13:02:13;98615.31;;;14.14;75.26
61573;BME280;47465;43.094;12.434;2023-02-23T13:05:03;98624.03;;;14.18;74.89
61573;BME280;47465;43.094;12.434;2023-02-23T13:07:45;98626.84;;;14.35;76.90
61573;BME280;47465;43.094;12.434;2023-02-23T13:10:21;98632.06;;;14.38;76.56
61573;BME280;47465;43.094;12.434;2023-02-23T13:12:57;98626.53;;;14.02;74.80
61573;BME280;47465;43.094;12.434;2023-02-23T13:15:32;98626.59;;;14.01;76.80
61573;BME280;47465;43.094;12.434;2023-02-23T13:18:10;98620.19;;;13.84;75.65
61573;BME280;47465;43.094;12.434;2023-02-23T13:20:42;98623.47;;;13.91;76.15
61573;BME280;47465;43.094;12.434;2023-02-23T13:23:18;98626.47;;;14.04;75.84
61573;BME280;47465;43.094;12.434;2023-02-23T13:25:50;98615.28;;;13.94;75.27
61573;BME280;47465;43.094;12.434;2023-02-23T13:28:31;98638.56;;;14.12;75.26
61573;BME280;47465;43.094;12.434;2023-02-23T13:30:59;98610.84;;;13.94;74.81